KLM569 EHAM-HTKJ
Flight info
| Callsign | KLM569 |
|---|---|
| Flight time | N/A |
| Altitude | 37000 |
| Route | EDUPO Z739 MISGO DCT ASBON DCT TUSUK DCT ULNOK L607 ABUKA DCT TEDGO DCT UTABA DCT BEMKI DCT ELMEM DCT GIRIS DCT NIVAS DCT PEVAL DCT SPL DCT VAKSU DCT RODON DCT DIMIS UL604 SALUN N705 MMA/N0476F390 N705 BOPIX N710 TAKRI P751 LXR M999 JDW G650 RASKA/N0481F400 UG650 KONET UM308 RUDOL/N0482F410 UM308 LOTAS DCT GETOM DCT APDIK APDIK2A |
| Aircraft | B772/H-SDE2E3FGHIJ5LORVWXY/LB1D1 |
Departure
| Time | 2026-05-05 12:00 |
|---|---|
| Airport | Amsterdam Airport Schiphol (EHAM) |
Arrival
| Time | N/A |
|---|---|
| Airport | Kilimanjaro International Airport (HTKJ) |
| Time | Latitude | Longitude | Altitude | Speed | Heading |
|---|---|---|---|---|---|
| 2026-05-05 11:31 | 52.31282 | 4.76931 | 3 ft | 0 kts | 303° |
| 2026-05-05 11:46 | 52.31274 | 4.76951 | 4 ft | 4 kts | 304° |
| 2026-05-05 11:46 | 52.31258 | 4.76984 | 6 ft | 4 kts | 322° |
| 2026-05-05 11:47 | 52.31247 | 4.76998 | 5 ft | 4 kts | 17° |
| 2026-05-05 11:47 | 52.31256 | 4.77022 | 5 ft | 4 kts | 64° |
| 2026-05-05 11:47 | 52.31260 | 4.77040 | 4 ft | 0 kts | 69° |
| 2026-05-05 11:47 | 52.31272 | 4.77062 | 3 ft | 4 kts | 42° |
| 2026-05-05 11:48 | 52.31295 | 4.77127 | 3 ft | 4 kts | 73° |
| 2026-05-05 11:48 | 52.31297 | 4.77169 | 3 ft | 4 kts | 91° |
| 2026-05-05 11:48 | 52.31294 | 4.77213 | 3 ft | 4 kts | 95° |
| 2026-05-05 11:49 | 52.31292 | 4.77257 | 3 ft | 3 kts | 93° |
| 2026-05-05 11:49 | 52.31292 | 4.77262 | 3 ft | 0 kts | 92° |
| 2026-05-05 11:52 | 52.31290 | 4.77330 | 3 ft | 12 kts | 92° |
| 2026-05-05 11:53 | 52.31286 | 4.77468 | 3 ft | 12 kts | 94° |
| 2026-05-05 11:53 | 52.31287 | 4.77607 | 3 ft | 12 kts | 74° |
| 2026-05-05 11:53 | 52.31361 | 4.77653 | 3 ft | 13 kts | 4° |
| 2026-05-05 11:53 | 52.31486 | 4.77597 | 3 ft | 24 kts | 319° |
| 2026-05-05 11:54 | 52.31574 | 4.77383 | 3 ft | 23 kts | 279° |
| 2026-05-05 11:54 | 52.31569 | 4.77121 | 3 ft | 23 kts | 266° |
| 2026-05-05 11:54 | 52.31558 | 4.76785 | 3 ft | 34 kts | 267° |
| 2026-05-05 11:54 | 52.31545 | 4.76405 | 4 ft | 32 kts | 267° |
| 2026-05-05 11:55 | 52.31533 | 4.76075 | 4 ft | 28 kts | 266° |
| 2026-05-05 11:55 | 52.31522 | 4.75761 | 3 ft | 28 kts | 266° |
| 2026-05-05 11:55 | 52.31511 | 4.75450 | 3 ft | 28 kts | 266° |
| 2026-05-05 11:55 | 52.31500 | 4.75136 | 3 ft | 28 kts | 267° |
| 2026-05-05 11:56 | 52.31490 | 4.74825 | 3 ft | 25 kts | 267° |
| 2026-05-05 11:56 | 52.31481 | 4.74548 | 4 ft | 24 kts | 267° |
| 2026-05-05 11:56 | 52.31472 | 4.74282 | 3 ft | 22 kts | 261° |
| 2026-05-05 11:56 | 52.31373 | 4.74140 | 3 ft | 21 kts | 185° |
| 2026-05-05 11:57 | 52.31197 | 4.74121 | 3 ft | 31 kts | 184° |
| 2026-05-05 11:57 | 52.30995 | 4.74103 | 3 ft | 27 kts | 183° |
| 2026-05-05 11:57 | 52.30808 | 4.74086 | 3 ft | 27 kts | 183° |
| 2026-05-05 11:57 | 52.30621 | 4.74068 | 3 ft | 27 kts | 183° |
| 2026-05-05 11:58 | 52.30436 | 4.74052 | 3 ft | 25 kts | 183° |
| 2026-05-05 11:58 | 52.30302 | 4.73996 | 3 ft | 20 kts | 204° |
| 2026-05-05 11:58 | 52.30197 | 4.73878 | 3 ft | 18 kts | 228° |
| 2026-05-05 11:58 | 52.30219 | 4.73747 | 2 ft | 13 kts | 347° |
| 2026-05-05 11:59 | 52.30352 | 4.73751 | 0 ft | 36 kts | 4° |
| 2026-05-05 11:59 | 52.30846 | 4.73798 | 3 ft | 105 kts | 3° |
| 2026-05-05 11:59 | 52.31783 | 4.73880 | 3 ft | 162 kts | 3° |
| 2026-05-05 11:59 | 52.33057 | 4.73988 | 234 ft | 191 kts | 5° |
| 2026-05-05 12:00 | 52.34320 | 4.74146 | 1318 ft | 173 kts | 13° |
| 2026-05-05 12:00 | 52.35395 | 4.74882 | 2016 ft | 173 kts | 27° |
| 2026-05-05 12:00 | 52.36539 | 4.75819 | 2327 ft | 194 kts | 27° |
| 2026-05-05 12:00 | 52.37815 | 4.76820 | 2559 ft | 213 kts | 30° |
| 2026-05-05 12:01 | 52.38953 | 4.78502 | 2728 ft | 228 kts | 50° |
| 2026-05-05 12:01 | 52.40029 | 4.80526 | 3296 ft | 234 kts | 46° |
| 2026-05-05 12:01 | 52.41138 | 4.82450 | 4044 ft | 235 kts | 46° |
| 2026-05-05 12:01 | 52.42130 | 4.84607 | 4367 ft | 245 kts | 69° |
| 2026-05-05 12:02 | 52.42395 | 4.87382 | 4885 ft | 252 kts | 88° |
| 2026-05-05 12:02 | 52.42398 | 4.90313 | 5364 ft | 260 kts | 89° |
| 2026-05-05 12:02 | 52.42406 | 4.93319 | 5882 ft | 268 kts | 90° |
| 2026-05-05 12:02 | 52.42388 | 4.96401 | 6337 ft | 273 kts | 97° |
| 2026-05-05 12:03 | 52.41731 | 4.99314 | 6739 ft | 277 kts | 129° |
| 2026-05-05 12:03 | 52.40317 | 5.01397 | 7273 ft | 275 kts | 146° |
| 2026-05-05 12:03 | 52.38720 | 5.03210 | 7719 ft | 281 kts | 146° |
| 2026-05-05 12:03 | 52.37133 | 5.05023 | 8292 ft | 282 kts | 146° |
| 2026-05-05 12:04 | 52.35516 | 5.06878 | 8850 ft | 285 kts | 145° |
| 2026-05-05 12:04 | 52.33884 | 5.08756 | 9374 ft | 288 kts | 144° |
| 2026-05-05 12:04 | 52.32359 | 5.10915 | 9788 ft | 293 kts | 133° |
| 2026-05-05 12:04 | 52.31003 | 5.13432 | 10221 ft | 298 kts | 130° |
| 2026-05-05 12:05 | 52.29621 | 5.16101 | 10340 ft | 315 kts | 131° |
| 2026-05-05 12:05 | 52.28164 | 5.18845 | 10463 ft | 333 kts | 131° |
| 2026-05-05 12:05 | 52.26578 | 5.21761 | 10590 ft | 353 kts | 132° |
| 2026-05-05 12:05 | 52.24890 | 5.24829 | 10847 ft | 369 kts | 132° |
| 2026-05-05 12:06 | 52.23216 | 5.28077 | 11460 ft | 376 kts | 127° |
| 2026-05-05 12:06 | 52.21685 | 5.31549 | 12116 ft | 384 kts | 124° |
| 2026-05-05 12:06 | 52.20166 | 5.35177 | 12808 ft | 390 kts | 124° |
| 2026-05-05 12:06 | 52.18646 | 5.38809 | 13588 ft | 393 kts | 124° |
| 2026-05-05 12:07 | 52.17082 | 5.42499 | 14275 ft | 397 kts | 125° |
| 2026-05-05 12:07 | 52.15508 | 5.46159 | 14966 ft | 399 kts | 125° |
| 2026-05-05 12:07 | 52.13901 | 5.49862 | 15676 ft | 401 kts | 126° |
| 2026-05-05 12:07 | 52.12274 | 5.53588 | 16365 ft | 404 kts | 126° |
| 2026-05-05 12:08 | 52.10634 | 5.57334 | 17031 ft | 406 kts | 127° |
| 2026-05-05 12:08 | 52.09010 | 5.61037 | 17635 ft | 410 kts | 127° |
| 2026-05-05 12:08 | 52.07343 | 5.64833 | 18264 ft | 412 kts | 127° |
| 2026-05-05 12:08 | 52.05649 | 5.68628 | 18777 ft | 415 kts | 129° |
| 2026-05-05 12:09 | 52.03789 | 5.72253 | 19235 ft | 419 kts | 133° |
| 2026-05-05 12:09 | 52.01830 | 5.75792 | 19741 ft | 422 kts | 133° |
| 2026-05-05 12:09 | 51.99896 | 5.79312 | 20228 ft | 424 kts | 133° |
| 2026-05-05 12:09 | 51.97943 | 5.82934 | 20747 ft | 426 kts | 133° |
| 2026-05-05 12:10 | 51.95985 | 5.86595 | 21214 ft | 430 kts | 132° |
| 2026-05-05 12:10 | 51.94013 | 5.90272 | 21655 ft | 433 kts | 133° |
| 2026-05-05 12:10 | 51.92026 | 5.93971 | 22139 ft | 436 kts | 133° |
| 2026-05-05 12:10 | 51.90052 | 5.97642 | 22610 ft | 438 kts | 133° |
| 2026-05-05 12:11 | 51.88033 | 6.01390 | 23059 ft | 441 kts | 133° |
| 2026-05-05 12:11 | 51.86008 | 6.05141 | 23504 ft | 444 kts | 133° |
| 2026-05-05 12:11 | 51.83963 | 6.08909 | 23871 ft | 447 kts | 133° |
| 2026-05-05 12:11 | 51.81897 | 6.12690 | 24242 ft | 449 kts | 133° |
| 2026-05-05 12:12 | 51.79815 | 6.16492 | 24630 ft | 452 kts | 133° |
| 2026-05-05 12:12 | 51.77723 | 6.20311 | 25023 ft | 454 kts | 133° |
| 2026-05-05 12:12 | 51.75647 | 6.24098 | 25382 ft | 456 kts | 133° |
| 2026-05-05 12:12 | 51.73538 | 6.27948 | 25740 ft | 458 kts | 134° |
| 2026-05-05 12:13 | 51.71416 | 6.31820 | 26108 ft | 460 kts | 134° |
| 2026-05-05 12:13 | 51.69284 | 6.35708 | 26469 ft | 462 kts | 134° |
| 2026-05-05 12:13 | 51.67167 | 6.39564 | 26821 ft | 465 kts | 134° |
| 2026-05-05 12:13 | 51.65017 | 6.43469 | 27166 ft | 467 kts | 134° |
| 2026-05-05 12:14 | 51.62857 | 6.47386 | 27516 ft | 469 kts | 134° |
| 2026-05-05 12:14 | 51.60687 | 6.51313 | 27854 ft | 471 kts | 134° |
| 2026-05-05 12:14 | 51.58501 | 6.55262 | 28183 ft | 472 kts | 134° |
| 2026-05-05 12:14 | 51.56306 | 6.59226 | 28476 ft | 474 kts | 135° |
| 2026-05-05 12:15 | 51.54107 | 6.63189 | 28785 ft | 476 kts | 135° |
| 2026-05-05 12:15 | 51.51917 | 6.67133 | 29043 ft | 478 kts | 135° |
| 2026-05-05 12:15 | 51.49693 | 6.71132 | 29310 ft | 480 kts | 135° |
| 2026-05-05 12:15 | 51.47461 | 6.75143 | 29573 ft | 481 kts | 135° |
| 2026-05-05 12:16 | 51.45223 | 6.79155 | 29821 ft | 483 kts | 135° |
| 2026-05-05 12:16 | 51.42999 | 6.83115 | 30076 ft | 483 kts | 136° |
| 2026-05-05 12:16 | 51.40588 | 6.86841 | 30340 ft | 480 kts | 142° |
| 2026-05-05 12:16 | 51.37990 | 6.90179 | 30643 ft | 476 kts | 147° |
| 2026-05-05 12:17 | 51.35220 | 6.93076 | 30935 ft | 474 kts | 151° |
| 2026-05-05 12:17 | 51.32411 | 6.95849 | 31215 ft | 473 kts | 152° |
| 2026-05-05 12:17 | 51.29633 | 6.98590 | 31544 ft | 473 kts | 152° |
| 2026-05-05 12:17 | 51.26836 | 7.01360 | 31860 ft | 471 kts | 152° |
| 2026-05-05 12:18 | 51.24057 | 7.04125 | 32213 ft | 470 kts | 152° |
| 2026-05-05 12:18 | 51.21288 | 7.06889 | 32566 ft | 468 kts | 152° |
| 2026-05-05 12:18 | 51.18530 | 7.09645 | 32919 ft | 466 kts | 152° |
| 2026-05-05 12:18 | 51.15821 | 7.12351 | 33247 ft | 465 kts | 153° |
| 2026-05-05 12:19 | 51.13079 | 7.15087 | 33596 ft | 463 kts | 153° |
| 2026-05-05 12:19 | 51.10354 | 7.17802 | 33957 ft | 460 kts | 153° |
| 2026-05-05 12:19 | 51.07640 | 7.20501 | 34209 ft | 460 kts | 153° |
| 2026-05-05 12:19 | 51.04912 | 7.23208 | 34406 ft | 461 kts | 153° |
| 2026-05-05 12:20 | 51.02222 | 7.25874 | 34589 ft | 461 kts | 153° |
| 2026-05-05 12:20 | 50.99464 | 7.28604 | 34826 ft | 461 kts | 153° |
| 2026-05-05 12:20 | 50.96775 | 7.31263 | 35062 ft | 460 kts | 153° |
| 2026-05-05 12:20 | 50.94055 | 7.33948 | 35287 ft | 460 kts | 153° |
| 2026-05-05 12:21 | 50.91337 | 7.36627 | 35505 ft | 460 kts | 153° |
| 2026-05-05 12:21 | 50.88608 | 7.39314 | 35718 ft | 460 kts | 153° |
| 2026-05-05 12:21 | 50.86275 | 7.41608 | 35892 ft | 460 kts | 153° |
| 2026-05-05 12:21 | 50.83547 | 7.44288 | 36117 ft | 460 kts | 153° |
| 2026-05-05 12:22 | 50.80857 | 7.46926 | 36318 ft | 460 kts | 152° |
| 2026-05-05 12:22 | 50.78127 | 7.49601 | 36538 ft | 460 kts | 152° |
| 2026-05-05 12:22 | 50.75411 | 7.52259 | 36733 ft | 460 kts | 152° |
| 2026-05-05 12:22 | 50.72673 | 7.54931 | 36790 ft | 462 kts | 152° |
| 2026-05-05 12:23 | 50.67269 | 7.60411 | 36840 ft | 465 kts | 150° |
| 2026-05-05 12:23 | 50.61909 | 7.66020 | 36839 ft | 458 kts | 150° |
| 2026-05-05 12:24 | 50.56604 | 7.71540 | 36844 ft | 455 kts | 151° |
| 2026-05-05 12:24 | 50.51353 | 7.76953 | 36846 ft | 453 kts | 151° |
| 2026-05-05 12:25 | 50.46071 | 7.82374 | 36847 ft | 452 kts | 151° |